createdAt,value
2023-01-26T00:01:11.600Z,32.40
2023-01-26T00:03:37.843Z,38.38
2023-01-26T00:06:04.017Z,40.78
2023-01-26T00:08:30.161Z,35.25
2023-01-26T00:10:56.325Z,40.42
2023-01-26T00:13:22.545Z,35.75
2023-01-26T00:15:51.721Z,36.80
2023-01-26T00:18:17.927Z,37.17
2023-01-26T00:20:44.090Z,37.00
2023-01-26T00:23:10.228Z,39.83
2023-01-26T00:25:36.401Z,35.90
2023-01-26T00:28:02.526Z,31.48
2023-01-26T00:30:28.709Z,34.35
2023-01-26T00:32:54.933Z,34.53
2023-01-26T00:35:21.064Z,37.15
2023-01-26T00:37:49.004Z,30.05
2023-01-26T00:40:15.135Z,35.03
2023-01-26T00:42:41.339Z,38.70
2023-01-26T00:45:07.472Z,34.03
2023-01-26T00:47:33.628Z,37.65
2023-01-26T00:49:59.776Z,37.28
2023-01-26T00:52:25.894Z,36.90
2023-01-26T00:54:52.062Z,36.75
2023-01-26T00:57:18.229Z,35.13
2023-01-26T00:59:44.416Z,32.40
2023-01-26T01:02:10.622Z,32.70
2023-01-26T01:04:39.533Z,35.08
2023-01-26T01:07:05.713Z,36.28
2023-01-26T01:09:31.865Z,39.17
2023-01-26T01:11:58.065Z,37.70
2023-01-26T01:14:24.272Z,44.55
2023-01-26T01:16:50.407Z,37.92
2023-01-26T01:19:16.553Z,33.88
2023-01-26T01:21:45.437Z,32.40
2023-01-26T01:24:11.698Z,32.97
2023-01-26T01:26:37.866Z,36.90
2023-01-26T01:29:08.367Z,38.22
2023-01-26T01:31:34.581Z,35.38
2023-01-26T01:34:00.784Z,32.25
2023-01-26T01:36:26.960Z,35.22
2023-01-26T01:38:53.174Z,30.55
2023-01-26T01:41:19.320Z,34.65
2023-01-26T01:43:45.496Z,38.95
2023-01-26T01:46:11.785Z,32.55
2023-01-26T01:48:38.003Z,37.15
2023-01-26T01:51:09.127Z,34.28
2023-01-26T01:53:35.292Z,36.08
2023-01-26T01:56:01.460Z,35.95
2023-01-26T01:58:27.731Z,37.40
2023-01-26T02:00:53.967Z,36.40
2023-01-26T02:03:21.972Z,34.50
2023-01-26T02:05:48.093Z,37.50
2023-01-26T02:08:14.299Z,32.78
2023-01-26T02:10:40.503Z,36.97
2023-01-26T02:13:06.776Z,37.42
2023-01-26T02:15:33.026Z,37.80
2023-01-26T02:17:59.168Z,36.38
2023-01-26T02:20:25.362Z,35.65
2023-01-26T02:22:51.485Z,33.15
2023-01-26T02:25:17.655Z,36.92
2023-01-26T02:27:43.814Z,35.83
2023-01-26T02:32:45.078Z,42.47
2023-01-26T02:35:11.268Z,34.55
2023-01-26T02:37:37.416Z,37.67
2023-01-26T02:40:03.629Z,38.95
2023-01-26T02:42:29.777Z,33.90
2023-01-26T02:44:55.946Z,36.08
2023-01-26T02:47:22.099Z,43.60
2023-01-26T02:49:48.255Z,38.65
2023-01-26T02:52:14.404Z,38.30
2023-01-26T02:59:58.185Z,37.42
2023-01-26T03:02:24.430Z,36.65
2023-01-26T03:04:50.601Z,35.03
2023-01-26T03:07:16.764Z,39.08
2023-01-26T03:09:42.922Z,35.47
2023-01-26T03:12:09.045Z,38.28
2023-01-26T03:14:35.209Z,38.30
2023-01-26T03:17:01.411Z,38.13
2023-01-26T03:19:27.591Z,33.78
2023-01-26T03:21:53.731Z,40.25
2023-01-26T03:24:20.047Z,34.05
2023-01-26T03:26:46.216Z,33.20
2023-01-26T03:29:12.342Z,34.05
2023-01-26T03:31:41.472Z,36.28
2023-01-26T03:34:07.666Z,34.90
2023-01-26T03:36:33.793Z,34.08
2023-01-26T03:38:59.966Z,36.25
2023-01-26T03:41:26.113Z,36.03
2023-01-26T03:43:52.306Z,38.05
2023-01-26T03:46:18.480Z,31.08
2023-01-26T03:48:44.638Z,31.02
2023-01-26T03:51:10.804Z,30.45
2023-01-26T03:53:36.979Z,32.22
2023-01-26T03:56:03.132Z,29.95
2023-01-26T03:58:32.045Z,30.77
2023-01-26T04:00:58.258Z,31.50
2023-01-26T04:03:24.406Z,31.55
2023-01-26T04:05:50.584Z,30.95
2023-01-26T04:08:16.729Z,29.40
2023-01-26T04:10:42.875Z,37.15
2023-01-26T04:13:09.027Z,24.85
2023-01-26T04:15:35.178Z,30.90
2023-01-26T04:18:03.383Z,27.73
2023-01-26T04:20:29.521Z,22.35
2023-01-26T04:22:55.628Z,25.58
2023-01-26T04:25:21.812Z,30.67
2023-01-26T04:27:50.146Z,25.02
2023-01-26T04:30:16.303Z,29.48
2023-01-26T04:32:42.448Z,25.50
2023-01-26T04:35:08.644Z,25.77
2023-01-26T04:37:34.824Z,27.23
2023-01-26T04:40:00.991Z,25.60
2023-01-26T04:42:27.197Z,25.73
2023-01-26T04:44:53.322Z,17.92
2023-01-26T04:47:19.499Z,26.88
2023-01-26T04:49:45.682Z,29.10
2023-01-26T04:52:11.860Z,22.23
2023-01-26T04:54:38.077Z,30.55
2023-01-26T04:57:04.207Z,26.70
2023-01-26T04:59:30.376Z,22.67
2023-01-26T05:01:56.531Z,23.88
2023-01-26T05:04:22.693Z,24.98
2023-01-26T05:06:48.882Z,25.30
2023-01-26T05:09:15.055Z,24.77
2023-01-26T05:11:41.241Z,22.90
2023-01-26T05:14:07.390Z,27.00
2023-01-26T05:16:33.569Z,21.35
2023-01-26T05:19:00.786Z,25.88
2023-01-26T05:21:30.069Z,18.67
2023-01-26T05:23:56.225Z,28.58
2023-01-26T05:26:22.350Z,21.65
2023-01-26T05:28:48.472Z,24.80
2023-01-26T05:31:14.677Z,25.52
2023-01-26T05:33:43.629Z,17.38
2023-01-26T05:36:09.846Z,26.55
2023-01-26T05:38:35.984Z,20.33
2023-01-26T05:41:02.147Z,26.40
2023-01-26T05:43:28.364Z,22.13
2023-01-26T05:45:54.652Z,19.38
2023-01-26T05:48:20.835Z,18.63
2023-01-26T05:50:47.083Z,19.83
2023-01-26T05:53:13.250Z,19.70
2023-01-26T05:55:39.481Z,21.27
2023-01-26T05:58:05.639Z,20.15
2023-01-26T06:00:31.820Z,23.50
2023-01-26T06:02:58.033Z,18.35
2023-01-26T06:05:24.189Z,23.38
2023-01-26T06:07:50.332Z,19.85
2023-01-26T06:10:16.551Z,18.90
2023-01-26T06:12:44.576Z,23.48
2023-01-26T06:15:10.735Z,19.23
2023-01-26T06:17:36.921Z,17.20
2023-01-26T06:20:03.084Z,21.98
2023-01-26T06:22:29.304Z,17.60
2023-01-26T06:24:55.510Z,18.42
2023-01-26T06:27:21.674Z,19.88
2023-01-26T06:29:47.817Z,16.05
2023-01-26T06:32:13.937Z,21.13
2023-01-26T06:34:40.075Z,16.70
2023-01-26T06:37:06.194Z,17.10
2023-01-26T06:39:32.365Z,15.13
2023-01-26T06:41:58.553Z,19.50
2023-01-26T06:44:24.758Z,20.10
2023-01-26T06:46:50.891Z,17.70
2023-01-26T06:49:17.097Z,20.00
2023-01-26T06:51:43.262Z,17.17
2023-01-26T06:54:09.379Z,14.25
2023-01-26T06:56:35.533Z,14.60
2023-01-26T06:59:01.706Z,17.50
2023-01-26T07:01:27.880Z,15.82
2023-01-26T07:03:54.099Z,17.58
2023-01-26T07:06:20.299Z,13.52
2023-01-26T07:08:46.477Z,13.60
2023-01-26T07:11:12.664Z,10.93
2023-01-26T07:13:38.882Z,15.73
2023-01-26T07:16:05.063Z,14.77
2023-01-26T07:18:31.197Z,12.88
2023-01-26T07:20:57.327Z,17.17
2023-01-26T07:23:23.423Z,13.13
2023-01-26T07:25:49.603Z,13.65
2023-01-26T07:28:15.740Z,16.75
2023-01-26T07:30:41.994Z,17.98
2023-01-26T07:33:08.136Z,14.85
2023-01-26T07:35:34.286Z,14.88
2023-01-26T07:38:00.431Z,12.13
2023-01-26T07:40:26.639Z,12.23
2023-01-26T07:42:52.802Z,15.40
2023-01-26T07:45:18.939Z,10.70
2023-01-26T07:47:45.134Z,8.85
2023-01-26T07:50:11.470Z,10.93
2023-01-26T07:52:37.779Z,10.38
2023-01-26T07:55:03.942Z,11.77
2023-01-26T07:57:30.121Z,12.27
2023-01-26T07:59:56.341Z,10.02
2023-01-26T08:02:22.525Z,11.75
2023-01-26T08:04:49.794Z,13.65
2023-01-26T08:07:16.351Z,12.02
2023-01-26T08:09:42.496Z,13.90
2023-01-26T08:12:08.675Z,17.33
2023-01-26T08:14:46.140Z,16.83
2023-01-26T08:17:13.224Z,14.57
2023-01-26T08:19:39.387Z,14.05
2023-01-26T08:22:05.591Z,10.68
2023-01-26T08:24:31.779Z,13.40
2023-01-26T08:26:57.976Z,14.65
2023-01-26T08:29:24.157Z,15.63
2023-01-26T08:31:50.453Z,12.02
2023-01-26T08:34:16.652Z,16.33
2023-01-26T08:36:42.851Z,14.40
2023-01-26T08:39:09.024Z,12.77
2023-01-26T08:41:35.193Z,14.73
2023-01-26T08:44:01.343Z,13.13
2023-01-26T08:46:27.525Z,15.95
2023-01-26T08:48:53.749Z,12.45
2023-01-26T08:51:19.954Z,11.15
2023-01-26T08:53:46.170Z,14.48
2023-01-26T08:56:12.372Z,15.02
2023-01-26T08:58:38.545Z,6.28
2023-01-26T09:01:04.820Z,12.48
2023-01-26T09:03:30.991Z,10.45
2023-01-26T09:05:57.184Z,9.93
2023-01-26T09:08:23.424Z,11.63
2023-01-26T09:10:49.613Z,17.50
2023-01-26T09:13:15.756Z,10.15
2023-01-26T09:15:41.927Z,13.88
2023-01-26T09:18:08.085Z,14.93
2023-01-26T09:20:34.248Z,12.48
2023-01-26T09:23:00.421Z,12.18
2023-01-26T09:25:26.546Z,13.18
2023-01-26T09:27:52.722Z,8.00
2023-01-26T09:30:18.969Z,10.57
2023-01-26T09:32:45.194Z,11.10
2023-01-26T09:35:13.942Z,11.85
2023-01-26T09:37:40.587Z,6.53
2023-01-26T09:40:06.756Z,10.48
2023-01-26T09:42:32.939Z,8.85
2023-01-26T09:44:59.110Z,10.88
2023-01-26T09:47:25.300Z,12.07
2023-01-26T09:49:51.580Z,12.02
2023-01-26T09:52:17.780Z,10.20
2023-01-26T09:54:43.972Z,12.48
2023-01-26T09:57:10.136Z,13.65
2023-01-26T09:59:36.329Z,11.25
2023-01-26T10:02:02.511Z,13.23
2023-01-26T10:04:28.731Z,12.63
2023-01-26T10:06:54.875Z,12.32
2023-01-26T10:09:21.072Z,14.68
2023-01-26T10:11:47.204Z,14.60
2023-01-26T10:14:13.416Z,12.70
2023-01-26T10:16:39.583Z,10.35
2023-01-26T10:19:05.808Z,11.63
2023-01-26T10:21:32.091Z,11.95
2023-01-26T10:23:58.300Z,10.90
2023-01-26T10:26:24.579Z,11.30
2023-01-26T10:28:50.759Z,8.93
2023-01-26T10:31:16.994Z,12.18
2023-01-26T10:33:43.531Z,7.25
2023-01-26T10:36:09.752Z,11.38
2023-01-26T10:38:35.894Z,9.27
2023-01-26T10:41:02.080Z,9.82
2023-01-26T10:43:28.284Z,7.63
2023-01-26T10:45:54.486Z,12.70
2023-01-26T10:48:20.695Z,12.30
2023-01-26T10:50:46.845Z,12.07
2023-01-26T10:53:13.317Z,9.52
2023-01-26T10:55:39.518Z,7.75
2023-01-26T10:58:05.665Z,7.25
2023-01-26T11:00:31.889Z,7.97
2023-01-26T11:02:58.140Z,6.53
2023-01-26T11:05:24.451Z,11.82
2023-01-26T11:07:50.592Z,8.93
2023-01-26T11:10:16.819Z,6.35
2023-01-26T11:12:43.255Z,8.20
2023-01-26T11:15:09.727Z,7.07
2023-01-26T11:17:36.135Z,7.70
2023-01-26T11:20:02.351Z,7.43
2023-01-26T11:22:28.529Z,7.45
2023-01-26T11:24:54.706Z,7.75
2023-01-26T11:27:20.902Z,7.53
2023-01-26T11:29:47.102Z,6.07
2023-01-26T11:32:13.300Z,7.32
2023-01-26T11:34:39.499Z,8.25
2023-01-26T11:37:05.674Z,7.93
2023-01-26T11:39:31.820Z,8.48
2023-01-26T11:41:58.027Z,8.48
2023-01-26T11:44:24.234Z,11.35
2023-01-26T11:46:50.487Z,6.30
2023-01-26T11:49:16.641Z,6.07
2023-01-26T11:51:42.852Z,7.20
2023-01-26T11:54:09.074Z,7.18
2023-01-26T11:56:35.307Z,7.72
2023-01-26T11:59:01.493Z,9.30
2023-01-26T12:01:27.751Z,7.45
2023-01-26T12:03:53.937Z,5.75
2023-01-26T12:06:20.132Z,7.90
2023-01-26T12:08:46.339Z,5.13
2023-01-26T12:11:12.552Z,7.60
2023-01-26T12:13:38.699Z,10.63
2023-01-26T12:16:04.969Z,6.57
2023-01-26T12:18:46.923Z,7.25
2023-01-26T12:21:17.095Z,8.35
2023-01-26T12:23:43.297Z,8.40
2023-01-26T12:26:09.428Z,8.38
2023-01-26T12:28:35.632Z,8.70
2023-01-26T12:31:01.969Z,6.25
2023-01-26T12:33:28.307Z,6.15
2023-01-26T12:35:54.581Z,7.80
2023-01-26T12:38:20.787Z,8.40
2023-01-26T12:40:47.035Z,9.23
2023-01-26T12:43:13.208Z,8.52
2023-01-26T12:45:39.386Z,7.75
2023-01-26T12:48:05.577Z,6.15
2023-01-26T12:50:31.810Z,7.03
2023-01-26T12:52:58.317Z,9.02
2023-01-26T12:55:24.550Z,8.02
2023-01-26T12:57:50.714Z,10.05
2023-01-26T13:00:16.965Z,7.97
2023-01-26T13:02:43.163Z,7.07
2023-01-26T13:05:09.398Z,9.10
2023-01-26T13:07:35.712Z,9.35
2023-01-26T13:10:01.915Z,9.95
2023-01-26T13:12:28.116Z,8.18
2023-01-26T13:14:54.361Z,8.30
2023-01-26T13:17:20.502Z,12.02
2023-01-26T13:19:46.710Z,12.52
2023-01-26T13:22:12.965Z,12.63
2023-01-26T13:24:39.166Z,14.13
2023-01-26T13:27:05.303Z,9.65
2023-01-26T13:29:31.454Z,11.52
2023-01-26T13:31:57.605Z,10.13
2023-01-26T13:34:23.785Z,14.85
2023-01-26T13:36:50.052Z,17.60
2023-01-26T13:39:16.339Z,14.40
2023-01-26T13:41:42.522Z,13.15
2023-01-26T13:44:08.741Z,15.23
2023-01-26T13:46:34.960Z,12.98
2023-01-26T13:49:01.181Z,12.57
2023-01-26T13:51:27.307Z,15.52
2023-01-26T13:53:53.489Z,14.68
2023-01-26T13:56:19.642Z,13.63
2023-01-26T13:58:45.851Z,14.88
2023-01-26T14:01:12.008Z,15.07
2023-01-26T14:03:38.128Z,13.90
2023-01-26T14:06:04.311Z,14.38
2023-01-26T14:08:30.450Z,13.02
2023-01-26T14:10:56.685Z,12.45
2023-01-26T14:13:22.884Z,13.98
2023-01-26T14:15:49.085Z,14.02
2023-01-26T14:18:15.288Z,14.18
2023-01-26T14:20:41.492Z,15.50
2023-01-26T14:23:07.669Z,15.07
2023-01-26T14:25:33.852Z,12.07
2023-01-26T14:28:01.036Z,15.55
2023-01-26T14:30:27.411Z,10.85
2023-01-26T14:32:53.623Z,12.05
2023-01-26T14:35:19.767Z,12.52
2023-01-26T14:37:45.906Z,15.25
2023-01-26T14:40:12.359Z,17.38
2023-01-26T14:42:38.736Z,12.02
2023-01-26T14:45:04.913Z,14.18
2023-01-26T14:47:31.120Z,14.98
2023-01-26T14:49:57.310Z,11.63
2023-01-26T14:52:23.547Z,11.43
2023-01-26T14:54:49.694Z,12.23
2023-01-26T14:57:15.885Z,11.05
2023-01-26T14:59:42.072Z,14.23
2023-01-26T15:02:08.282Z,12.30
2023-01-26T15:04:34.501Z,13.40
2023-01-26T15:07:00.629Z,12.57
2023-01-26T15:09:26.855Z,11.93
2023-01-26T15:11:53.021Z,15.27
2023-01-26T15:14:21.128Z,14.60
2023-01-26T15:16:47.461Z,12.88
2023-01-26T15:19:13.647Z,14.13
2023-01-26T15:21:39.853Z,9.07
2023-01-26T15:24:06.070Z,13.73
2023-01-26T15:26:32.268Z,15.85
2023-01-26T15:28:58.537Z,15.00
2023-01-26T15:31:24.804Z,9.23
2023-01-26T15:33:51.009Z,15.90
2023-01-26T15:36:17.210Z,13.77
2023-01-26T15:38:43.518Z,14.27
2023-01-26T15:41:09.724Z,13.02
2023-01-26T15:43:35.963Z,12.18
2023-01-26T15:46:02.190Z,12.52
2023-01-26T15:48:28.335Z,9.52
2023-01-26T15:50:54.509Z,11.85
2023-01-26T15:53:20.684Z,12.63
2023-01-26T15:55:46.942Z,12.05
2023-01-26T15:58:13.111Z,12.70
2023-01-26T16:00:39.314Z,13.27
2023-01-26T16:03:05.546Z,15.05
2023-01-26T16:05:31.743Z,14.57
2023-01-26T16:07:57.883Z,12.30
2023-01-26T16:10:24.126Z,14.15
2023-01-26T16:12:50.352Z,14.40
2023-01-26T16:15:16.581Z,13.55
2023-01-26T16:17:42.836Z,16.23
2023-01-26T16:20:09.020Z,11.57
2023-01-26T16:22:35.202Z,11.23
2023-01-26T16:25:01.358Z,11.68
2023-01-26T16:27:27.621Z,12.40
2023-01-26T16:29:53.802Z,11.93
2023-01-26T16:32:19.968Z,14.82
2023-01-26T16:34:46.122Z,12.90
2023-01-26T16:37:12.341Z,12.82
2023-01-26T16:39:38.479Z,20.02
2023-01-26T16:42:04.611Z,14.60
2023-01-26T16:44:30.788Z,12.00
2023-01-26T16:46:56.950Z,14.48
2023-01-26T16:49:23.167Z,13.73
2023-01-26T16:51:49.351Z,14.82
2023-01-26T16:54:15.527Z,16.05
2023-01-26T16:56:41.713Z,14.38
2023-01-26T16:59:07.869Z,12.30
2023-01-26T17:01:34.064Z,11.15
2023-01-26T17:04:00.254Z,13.93
2023-01-26T17:06:26.455Z,12.88
2023-01-26T17:08:52.658Z,12.48
2023-01-26T17:11:18.841Z,14.02
2023-01-26T17:13:45.062Z,17.58
2023-01-26T17:16:12.136Z,16.10
2023-01-26T17:18:38.330Z,14.73
2023-01-26T17:21:04.536Z,15.15
2023-01-26T17:23:30.738Z,16.42
2023-01-26T17:25:56.906Z,15.70
2023-01-26T17:28:23.199Z,15.90
2023-01-26T17:30:49.359Z,9.52
2023-01-26T17:33:15.526Z,14.52
2023-01-26T17:35:41.675Z,16.88
2023-01-26T17:38:07.860Z,15.85
2023-01-26T17:40:34.040Z,14.18
2023-01-26T17:43:00.284Z,15.60
2023-01-26T17:45:26.496Z,14.15
2023-01-26T17:47:52.735Z,15.90
2023-01-26T17:50:18.881Z,14.27
2023-01-26T17:52:45.032Z,18.83
2023-01-26T17:55:11.431Z,15.00
2023-01-26T17:57:37.825Z,13.77
2023-01-26T18:00:04.037Z,12.40
2023-01-26T18:02:30.353Z,15.90
2023-01-26T18:04:56.591Z,15.50
2023-01-26T18:07:22.827Z,18.05
2023-01-26T18:09:48.980Z,16.58
2023-01-26T18:12:15.195Z,14.60
2023-01-26T18:14:41.415Z,21.40
2023-01-26T18:17:07.629Z,16.15
2023-01-26T18:19:33.875Z,14.73
2023-01-26T18:22:00.214Z,15.15
2023-01-26T18:24:26.458Z,15.20
2023-01-26T18:26:52.736Z,14.27
2023-01-26T18:29:18.930Z,15.13
2023-01-26T18:31:45.245Z,15.75
2023-01-26T18:34:11.461Z,12.80
2023-01-26T18:36:37.647Z,14.85
2023-01-26T18:39:03.854Z,14.40
2023-01-26T18:41:30.007Z,14.85
2023-01-26T18:43:56.204Z,18.88
2023-01-26T18:46:22.440Z,15.60
2023-01-26T18:48:48.610Z,15.40
2023-01-26T18:51:14.837Z,14.35
2023-01-26T18:53:41.025Z,15.13
2023-01-26T18:56:07.247Z,13.57
2023-01-26T18:58:33.404Z,15.57
2023-01-26T19:00:59.640Z,19.65
2023-01-26T19:03:25.891Z,17.30
2023-01-26T19:05:52.050Z,15.52
2023-01-26T19:08:18.360Z,14.95
2023-01-26T19:10:44.557Z,17.40
2023-01-26T19:13:10.739Z,15.15
2023-01-26T19:15:37.061Z,21.85
2023-01-26T19:18:03.229Z,16.88
2023-01-26T19:20:29.415Z,22.55
2023-01-26T19:22:55.725Z,20.73
2023-01-26T19:25:21.907Z,16.70
2023-01-26T19:27:48.335Z,17.70
2023-01-26T19:30:14.546Z,18.42
2023-01-26T19:32:40.751Z,19.10
2023-01-26T19:35:06.959Z,17.25
2023-01-26T19:37:33.137Z,17.80
2023-01-26T19:40:01.517Z,12.85
2023-01-26T19:42:27.693Z,17.15
2023-01-26T19:44:54.229Z,18.17
2023-01-26T19:47:20.362Z,16.33
2023-01-26T19:49:46.581Z,17.48
2023-01-26T19:52:12.749Z,18.02
2023-01-26T19:54:39.037Z,19.05
2023-01-26T19:57:05.218Z,19.25
2023-01-26T19:59:31.498Z,13.52
2023-01-26T20:01:57.703Z,20.42
2023-01-26T20:04:23.925Z,17.75
2023-01-26T20:06:50.158Z,18.85
2023-01-26T20:09:16.330Z,17.92
2023-01-26T20:11:42.507Z,15.75
2023-01-26T20:14:09.006Z,19.08
2023-01-26T20:16:35.387Z,20.85
2023-01-26T20:19:01.656Z,19.65
2023-01-26T20:21:28.027Z,17.77
2023-01-26T20:23:55.837Z,23.70
2023-01-26T20:26:22.415Z,19.55
2023-01-26T20:28:48.748Z,25.52
2023-01-26T20:31:15.100Z,19.45
2023-01-26T20:33:41.276Z,24.83
2023-01-26T20:36:08.250Z,19.05
2023-01-26T20:38:34.523Z,21.88
2023-01-26T20:41:00.871Z,19.05
2023-01-26T20:43:27.019Z,24.27
2023-01-26T20:45:53.265Z,24.13
2023-01-26T20:48:19.474Z,19.23
2023-01-26T20:50:45.681Z,22.17
2023-01-26T20:53:11.857Z,25.77
2023-01-26T20:55:38.005Z,23.35
2023-01-26T20:58:06.639Z,22.58
2023-01-26T21:00:32.990Z,21.35
2023-01-26T21:02:59.199Z,26.88
2023-01-26T21:05:25.394Z,22.50
2023-01-26T21:07:51.578Z,22.02
2023-01-26T21:10:17.748Z,21.75
2023-01-26T21:15:23.997Z,27.30
2023-01-26T21:17:50.133Z,25.58
2023-01-26T21:20:16.377Z,22.65
2023-01-26T21:22:42.564Z,25.35
2023-01-26T21:25:08.703Z,26.35
2023-01-26T21:27:34.838Z,25.75
2023-01-26T21:30:01.009Z,25.40
2023-01-26T21:32:27.199Z,34.13
2023-01-26T21:34:53.390Z,23.50
2023-01-26T21:37:19.571Z,29.27
2023-01-26T21:39:45.712Z,30.75
2023-01-26T21:42:11.912Z,26.55
2023-01-26T21:44:38.106Z,27.23
2023-01-26T21:47:04.240Z,28.80
2023-01-26T21:49:30.454Z,25.80
2023-01-26T21:51:56.594Z,35.00
2023-01-26T21:54:22.782Z,25.15
2023-01-26T21:56:48.900Z,29.30
2023-01-26T21:59:15.150Z,28.05
2023-01-26T22:01:41.331Z,21.85
2023-01-26T22:04:07.627Z,27.38
2023-01-26T22:06:33.868Z,27.40
2023-01-26T22:09:00.095Z,32.03
2023-01-26T22:11:26.233Z,31.05
2023-01-26T22:13:52.403Z,28.58
2023-01-26T22:16:18.619Z,29.27
2023-01-26T22:18:44.741Z,26.08
2023-01-26T22:21:10.937Z,26.95
2023-01-26T22:23:37.159Z,30.65
2023-01-26T22:26:03.378Z,28.95
2023-01-26T22:28:29.577Z,31.13
2023-01-26T22:30:55.837Z,25.23
2023-01-26T22:33:22.024Z,25.02
2023-01-26T22:35:48.266Z,31.77
2023-01-26T22:38:14.647Z,29.45
2023-01-26T22:40:40.826Z,34.67
2023-01-26T22:43:07.015Z,35.60
2023-01-26T22:45:33.245Z,33.90
2023-01-26T22:47:59.438Z,26.70
2023-01-26T22:50:25.564Z,26.73
2023-01-26T22:52:51.700Z,35.10
2023-01-26T22:55:17.859Z,28.45
2023-01-26T22:57:44.066Z,33.35
2023-01-26T23:00:10.405Z,30.15
2023-01-26T23:02:36.744Z,29.60
2023-01-26T23:05:02.960Z,30.00
2023-01-26T23:07:29.147Z,29.45
2023-01-26T23:09:55.301Z,30.83
2023-01-26T23:12:21.420Z,37.40
2023-01-26T23:14:47.567Z,28.38
2023-01-26T23:17:13.746Z,30.70
2023-01-26T23:19:39.995Z,28.80
2023-01-26T23:22:06.170Z,28.95
2023-01-26T23:24:32.303Z,34.47
2023-01-26T23:26:58.459Z,36.85
2023-01-26T23:29:24.576Z,28.42
2023-01-26T23:31:50.777Z,31.88
2023-01-26T23:34:16.956Z,33.25
2023-01-26T23:36:43.112Z,29.70
2023-01-26T23:39:09.266Z,27.20
2023-01-26T23:41:35.434Z,31.58
2023-01-26T23:44:01.581Z,33.95
2023-01-26T23:46:27.814Z,28.33
2023-01-26T23:48:54.039Z,23.95
2023-01-26T23:51:20.182Z,30.15
2023-01-26T23:53:46.403Z,27.13
2023-01-26T23:56:12.578Z,31.48
2023-01-26T23:58:38.739Z,25.25
